sensor_id;sensor_type;location;lat;lon;timestamp;P1;durP1;ratioP1;P2;durP2;ratioP2
2972;SDS011;1496;51.404;7.232;2023-06-05T00:01:12;3.57;;;2.50;;
2972;SDS011;1496;51.404;7.232;2023-06-05T00:03:38;9.70;;;2.40;;
2972;SDS011;1496;51.404;7.232;2023-06-05T00:06:04;4.60;;;2.20;;
2972;SDS011;1496;51.404;7.232;2023-06-05T00:08:31;9.40;;;2.60;;
2972;SDS011;1496;51.404;7.232;2023-06-05T00:10:56;7.50;;;3.37;;
2972;SDS011;1496;51.404;7.232;2023-06-05T00:13:22;3.70;;;2.33;;
2972;SDS011;1496;51.404;7.232;2023-06-05T00:15:48;4.77;;;2.60;;
2972;SDS011;1496;51.404;7.232;2023-06-05T00:18:15;7.17;;;2.63;;
2972;SDS011;1496;51.404;7.232;2023-06-05T00:20:42;5.37;;;2.57;;
2972;SDS011;1496;51.404;7.232;2023-06-05T00:23:08;2.73;;;2.43;;
2972;SDS011;1496;51.404;7.232;2023-06-05T00:25:36;2.50;;;2.07;;
2972;SDS011;1496;51.404;7.232;2023-06-05T00:28:02;4.33;;;2.40;;
2972;SDS011;1496;51.404;7.232;2023-06-05T00:30:28;4.57;;;2.87;;
2972;SDS011;1496;51.404;7.232;2023-06-05T00:32:54;4.10;;;2.90;;
2972;SDS011;1496;51.404;7.232;2023-06-05T00:35:20;3.80;;;2.30;;
2972;SDS011;1496;51.404;7.232;2023-06-05T00:37:46;3.30;;;2.27;;
2972;SDS011;1496;51.404;7.232;2023-06-05T00:40:12;4.70;;;2.87;;
2972;SDS011;1496;51.404;7.232;2023-06-05T00:42:38;6.97;;;2.90;;
2972;SDS011;1496;51.404;7.232;2023-06-05T00:45:05;6.87;;;2.77;;
2972;SDS011;1496;51.404;7.232;2023-06-05T00:47:32;6.73;;;3.07;;
2972;SDS011;1496;51.404;7.232;2023-06-05T00:49:58;7.07;;;2.50;;
2972;SDS011;1496;51.404;7.232;2023-06-05T00:52:24;3.60;;;2.80;;
2972;SDS011;1496;51.404;7.232;2023-06-05T00:54:52;8.27;;;2.47;;
2972;SDS011;1496;51.404;7.232;2023-06-05T00:57:18;4.53;;;2.50;;
2972;SDS011;1496;51.404;7.232;2023-06-05T00:59:44;5.20;;;2.80;;
2972;SDS011;1496;51.404;7.232;2023-06-05T01:02:11;4.53;;;2.90;;
2972;SDS011;1496;51.404;7.232;2023-06-05T01:04:41;3.73;;;2.07;;
2972;SDS011;1496;51.404;7.232;2023-06-05T01:07:08;5.60;;;3.50;;
2972;SDS011;1496;51.404;7.232;2023-06-05T01:09:36;4.87;;;2.93;;
2972;SDS011;1496;51.404;7.232;2023-06-05T01:14:40;5.43;;;3.13;;
2972;SDS011;1496;51.404;7.232;2023-06-05T01:17:11;7.60;;;2.90;;
2972;SDS011;1496;51.404;7.232;2023-06-05T01:19:40;5.43;;;2.47;;
2972;SDS011;1496;51.404;7.232;2023-06-05T01:22:08;4.43;;;2.73;;
2972;SDS011;1496;51.404;7.232;2023-06-05T01:24:33;3.90;;;3.13;;
2972;SDS011;1496;51.404;7.232;2023-06-05T01:32:41;3.80;;;2.80;;
2972;SDS011;1496;51.404;7.232;2023-06-05T01:35:10;4.37;;;2.80;;
2972;SDS011;1496;51.404;7.232;2023-06-05T01:37:42;4.77;;;2.73;;
2972;SDS011;1496;51.404;7.232;2023-06-05T01:40:14;4.43;;;3.13;;
2972;SDS011;1496;51.404;7.232;2023-06-05T01:42:41;3.83;;;2.87;;
2972;SDS011;1496;51.404;7.232;2023-06-05T01:45:09;5.00;;;2.77;;
2972;SDS011;1496;51.404;7.232;2023-06-05T01:47:36;4.77;;;3.07;;
2972;SDS011;1496;51.404;7.232;2023-06-05T01:50:03;5.27;;;3.27;;
2972;SDS011;1496;51.404;7.232;2023-06-05T01:52:30;7.83;;;3.33;;
2972;SDS011;1496;51.404;7.232;2023-06-05T01:54:56;4.23;;;2.97;;
2972;SDS011;1496;51.404;7.232;2023-06-05T01:57:26;9.40;;;3.00;;
2972;SDS011;1496;51.404;7.232;2023-06-05T01:59:52;8.63;;;2.97;;
2972;SDS011;1496;51.404;7.232;2023-06-05T02:02:19;6.53;;;3.50;;
2972;SDS011;1496;51.404;7.232;2023-06-05T02:04:46;4.77;;;3.13;;
2972;SDS011;1496;51.404;7.232;2023-06-05T02:07:13;3.60;;;3.27;;
2972;SDS011;1496;51.404;7.232;2023-06-05T02:09:41;4.90;;;3.33;;
2972;SDS011;1496;51.404;7.232;2023-06-05T02:12:07;3.43;;;2.67;;
2972;SDS011;1496;51.404;7.232;2023-06-05T02:14:33;5.90;;;3.53;;
2972;SDS011;1496;51.404;7.232;2023-06-05T02:17:02;4.50;;;3.23;;
2972;SDS011;1496;51.404;7.232;2023-06-05T02:19:31;6.77;;;3.53;;
2972;SDS011;1496;51.404;7.232;2023-06-05T02:21:57;6.17;;;3.80;;
2972;SDS011;1496;51.404;7.232;2023-06-05T02:24:23;7.17;;;3.93;;
2972;SDS011;1496;51.404;7.232;2023-06-05T02:26:50;7.17;;;4.00;;
2972;SDS011;1496;51.404;7.232;2023-06-05T02:29:16;5.60;;;3.97;;
2972;SDS011;1496;51.404;7.232;2023-06-05T02:31:42;13.03;;;3.80;;
2972;SDS011;1496;51.404;7.232;2023-06-05T02:34:09;6.90;;;3.93;;
2972;SDS011;1496;51.404;7.232;2023-06-05T02:36:35;5.20;;;4.03;;
2972;SDS011;1496;51.404;7.232;2023-06-05T02:39:01;6.20;;;4.30;;
2972;SDS011;1496;51.404;7.232;2023-06-05T02:41:28;11.63;;;5.50;;
2972;SDS011;1496;51.404;7.232;2023-06-05T02:43:53;6.33;;;4.57;;
2972;SDS011;1496;51.404;7.232;2023-06-05T02:46:20;6.50;;;4.47;;
2972;SDS011;1496;51.404;7.232;2023-06-05T02:48:52;11.07;;;5.37;;
2972;SDS011;1496;51.404;7.232;2023-06-05T02:51:19;5.67;;;4.23;;
2972;SDS011;1496;51.404;7.232;2023-06-05T02:53:45;10.80;;;4.70;;
2972;SDS011;1496;51.404;7.232;2023-06-05T02:56:14;11.07;;;5.40;;
2972;SDS011;1496;51.404;7.232;2023-06-05T02:58:40;5.60;;;4.10;;
2972;SDS011;1496;51.404;7.232;2023-06-05T03:01:09;8.20;;;4.00;;
2972;SDS011;1496;51.404;7.232;2023-06-05T03:03:40;6.43;;;4.27;;
2972;SDS011;1496;51.404;7.232;2023-06-05T03:06:06;7.83;;;4.77;;
2972;SDS011;1496;51.404;7.232;2023-06-05T03:08:36;7.43;;;4.67;;
2972;SDS011;1496;51.404;7.232;2023-06-05T03:11:04;10.10;;;5.03;;
2972;SDS011;1496;51.404;7.232;2023-06-05T03:13:30;6.67;;;4.10;;
2972;SDS011;1496;51.404;7.232;2023-06-05T03:15:58;7.63;;;4.67;;
2972;SDS011;1496;51.404;7.232;2023-06-05T03:18:28;8.77;;;4.30;;
2972;SDS011;1496;51.404;7.232;2023-06-05T03:20:57;7.87;;;4.67;;
2972;SDS011;1496;51.404;7.232;2023-06-05T03:23:24;6.87;;;4.63;;
2972;SDS011;1496;51.404;7.232;2023-06-05T03:25:57;6.73;;;4.43;;
2972;SDS011;1496;51.404;7.232;2023-06-05T03:28:24;7.27;;;4.33;;
2972;SDS011;1496;51.404;7.232;2023-06-05T03:30:53;7.37;;;4.20;;
2972;SDS011;1496;51.404;7.232;2023-06-05T03:33:22;8.07;;;4.50;;
2972;SDS011;1496;51.404;7.232;2023-06-05T03:35:50;8.83;;;4.13;;
2972;SDS011;1496;51.404;7.232;2023-06-05T03:38:17;9.00;;;4.83;;
2972;SDS011;1496;51.404;7.232;2023-06-05T03:40:44;12.00;;;4.83;;
2972;SDS011;1496;51.404;7.232;2023-06-05T03:43:12;6.50;;;4.67;;
2972;SDS011;1496;51.404;7.232;2023-06-05T03:45:38;7.20;;;5.47;;
2972;SDS011;1496;51.404;7.232;2023-06-05T03:48:09;8.90;;;5.17;;
2972;SDS011;1496;51.404;7.232;2023-06-05T03:50:37;6.53;;;5.03;;
2972;SDS011;1496;51.404;7.232;2023-06-05T03:53:03;7.00;;;4.60;;
2972;SDS011;1496;51.404;7.232;2023-06-05T03:55:31;8.20;;;4.87;;
2972;SDS011;1496;51.404;7.232;2023-06-05T03:58:10;9.73;;;4.70;;
2972;SDS011;1496;51.404;7.232;2023-06-05T04:03:08;7.20;;;4.73;;
2972;SDS011;1496;51.404;7.232;2023-06-05T04:05:37;7.40;;;4.67;;
2972;SDS011;1496;51.404;7.232;2023-06-05T04:08:04;11.73;;;5.60;;
2972;SDS011;1496;51.404;7.232;2023-06-05T04:10:30;7.63;;;5.40;;
2972;SDS011;1496;51.404;7.232;2023-06-05T04:12:55;8.50;;;5.00;;
2972;SDS011;1496;51.404;7.232;2023-06-05T04:15:22;12.23;;;5.17;;
2972;SDS011;1496;51.404;7.232;2023-06-05T04:17:48;9.03;;;5.63;;
2972;SDS011;1496;51.404;7.232;2023-06-05T04:20:16;10.23;;;5.30;;
2972;SDS011;1496;51.404;7.232;2023-06-05T04:22:43;9.40;;;5.30;;
2972;SDS011;1496;51.404;7.232;2023-06-05T04:25:10;8.70;;;5.30;;
2972;SDS011;1496;51.404;7.232;2023-06-05T04:27:38;8.80;;;5.33;;
2972;SDS011;1496;51.404;7.232;2023-06-05T04:30:07;8.10;;;5.77;;
2972;SDS011;1496;51.404;7.232;2023-06-05T04:32:35;10.70;;;6.40;;
2972;SDS011;1496;51.404;7.232;2023-06-05T04:35:04;10.43;;;5.73;;
2972;SDS011;1496;51.404;7.232;2023-06-05T04:37:30;10.30;;;5.73;;
2972;SDS011;1496;51.404;7.232;2023-06-05T04:39:56;19.10;;;5.87;;
2972;SDS011;1496;51.404;7.232;2023-06-05T04:42:24;7.27;;;5.50;;
2972;SDS011;1496;51.404;7.232;2023-06-05T04:44:56;7.67;;;5.80;;
2972;SDS011;1496;51.404;7.232;2023-06-05T04:47:23;10.60;;;6.20;;
2972;SDS011;1496;51.404;7.232;2023-06-05T04:49:50;11.37;;;6.20;;
2972;SDS011;1496;51.404;7.232;2023-06-05T04:52:18;9.97;;;5.50;;
2972;SDS011;1496;51.404;7.232;2023-06-05T04:54:48;10.63;;;6.40;;
2972;SDS011;1496;51.404;7.232;2023-06-05T04:57:13;11.40;;;6.40;;
2972;SDS011;1496;51.404;7.232;2023-06-05T04:59:42;13.77;;;6.33;;
2972;SDS011;1496;51.404;7.232;2023-06-05T05:02:09;7.27;;;5.70;;
2972;SDS011;1496;51.404;7.232;2023-06-05T05:04:35;9.83;;;6.10;;
2972;SDS011;1496;51.404;7.232;2023-06-05T05:07:01;8.83;;;6.60;;
2972;SDS011;1496;51.404;7.232;2023-06-05T05:09:27;8.27;;;5.90;;
2972;SDS011;1496;51.404;7.232;2023-06-05T05:11:54;10.10;;;6.40;;
2972;SDS011;1496;51.404;7.232;2023-06-05T05:14:20;8.93;;;6.57;;
2972;SDS011;1496;51.404;7.232;2023-06-05T05:16:46;13.13;;;6.97;;
2972;SDS011;1496;51.404;7.232;2023-06-05T05:19:12;9.03;;;6.80;;
2972;SDS011;1496;51.404;7.232;2023-06-05T05:21:39;12.67;;;7.43;;
2972;SDS011;1496;51.404;7.232;2023-06-05T05:24:05;14.40;;;7.73;;
2972;SDS011;1496;51.404;7.232;2023-06-05T05:26:31;12.27;;;7.33;;
2972;SDS011;1496;51.404;7.232;2023-06-05T05:28:57;10.63;;;6.53;;
2972;SDS011;1496;51.404;7.232;2023-06-05T05:31:23;9.23;;;6.57;;
2972;SDS011;1496;51.404;7.232;2023-06-05T05:33:48;12.43;;;6.93;;
2972;SDS011;1496;51.404;7.232;2023-06-05T05:36:14;8.07;;;5.97;;
2972;SDS011;1496;51.404;7.232;2023-06-05T05:38:40;7.83;;;5.73;;
2972;SDS011;1496;51.404;7.232;2023-06-05T05:41:05;10.37;;;6.03;;
2972;SDS011;1496;51.404;7.232;2023-06-05T05:43:31;9.70;;;5.60;;
2972;SDS011;1496;51.404;7.232;2023-06-05T05:45:57;9.47;;;5.87;;
2972;SDS011;1496;51.404;7.232;2023-06-05T05:48:23;8.30;;;6.17;;
2972;SDS011;1496;51.404;7.232;2023-06-05T05:50:49;9.70;;;5.77;;
2972;SDS011;1496;51.404;7.232;2023-06-05T05:53:15;7.77;;;5.40;;
2972;SDS011;1496;51.404;7.232;2023-06-05T05:55:40;11.87;;;5.80;;
2972;SDS011;1496;51.404;7.232;2023-06-05T05:58:06;6.73;;;4.90;;
2972;SDS011;1496;51.404;7.232;2023-06-05T06:00:32;6.63;;;4.83;;
2972;SDS011;1496;51.404;7.232;2023-06-05T06:02:59;6.53;;;4.67;;
2972;SDS011;1496;51.404;7.232;2023-06-05T06:05:25;6.20;;;4.53;;
2972;SDS011;1496;51.404;7.232;2023-06-05T06:07:51;13.07;;;5.20;;
2972;SDS011;1496;51.404;7.232;2023-06-05T06:10:16;14.03;;;5.47;;
2972;SDS011;1496;51.404;7.232;2023-06-05T06:12:43;8.07;;;5.60;;
2972;SDS011;1496;51.404;7.232;2023-06-05T06:15:09;8.93;;;5.83;;
2972;SDS011;1496;51.404;7.232;2023-06-05T06:17:36;8.50;;;5.30;;
2972;SDS011;1496;51.404;7.232;2023-06-05T06:20:02;8.50;;;5.60;;
2972;SDS011;1496;51.404;7.232;2023-06-05T06:22:30;9.13;;;5.53;;
2972;SDS011;1496;51.404;7.232;2023-06-05T06:24:56;10.53;;;4.90;;
2972;SDS011;1496;51.404;7.232;2023-06-05T06:27:22;7.90;;;4.90;;
2972;SDS011;1496;51.404;7.232;2023-06-05T06:29:49;6.90;;;5.20;;
2972;SDS011;1496;51.404;7.232;2023-06-05T06:32:18;13.63;;;5.93;;
2972;SDS011;1496;51.404;7.232;2023-06-05T06:34:44;11.40;;;5.30;;
2972;SDS011;1496;51.404;7.232;2023-06-05T06:37:12;11.10;;;5.27;;
2972;SDS011;1496;51.404;7.232;2023-06-05T06:39:40;6.47;;;4.50;;
2972;SDS011;1496;51.404;7.232;2023-06-05T06:42:06;10.27;;;4.90;;
2972;SDS011;1496;51.404;7.232;2023-06-05T06:44:35;6.87;;;5.17;;
2972;SDS011;1496;51.404;7.232;2023-06-05T06:47:00;8.50;;;5.10;;
2972;SDS011;1496;51.404;7.232;2023-06-05T06:49:26;11.30;;;5.40;;
2972;SDS011;1496;51.404;7.232;2023-06-05T06:51:52;11.50;;;5.13;;
2972;SDS011;1496;51.404;7.232;2023-06-05T06:54:18;10.50;;;5.73;;
2972;SDS011;1496;51.404;7.232;2023-06-05T06:56:44;11.13;;;5.67;;
2972;SDS011;1496;51.404;7.232;2023-06-05T06:59:14;10.50;;;6.20;;
2972;SDS011;1496;51.404;7.232;2023-06-05T07:01:42;10.47;;;6.70;;
2972;SDS011;1496;51.404;7.232;2023-06-05T07:04:10;9.90;;;6.17;;
2972;SDS011;1496;51.404;7.232;2023-06-05T07:06:45;11.00;;;6.00;;
2972;SDS011;1496;51.404;7.232;2023-06-05T07:09:11;9.87;;;6.50;;
2972;SDS011;1496;51.404;7.232;2023-06-05T07:11:37;9.17;;;5.03;;
2972;SDS011;1496;51.404;7.232;2023-06-05T07:14:03;10.10;;;5.53;;
2972;SDS011;1496;51.404;7.232;2023-06-05T07:16:29;8.77;;;5.53;;
2972;SDS011;1496;51.404;7.232;2023-06-05T07:18:55;9.60;;;5.70;;
2972;SDS011;1496;51.404;7.232;2023-06-05T07:21:21;11.80;;;5.33;;
2972;SDS011;1496;51.404;7.232;2023-06-05T07:23:47;11.43;;;5.80;;
2972;SDS011;1496;51.404;7.232;2023-06-05T07:26:19;9.77;;;5.83;;
2972;SDS011;1496;51.404;7.232;2023-06-05T07:28:46;8.47;;;6.10;;
2972;SDS011;1496;51.404;7.232;2023-06-05T07:31:13;9.10;;;5.17;;
2972;SDS011;1496;51.404;7.232;2023-06-05T07:33:39;7.80;;;5.40;;
2972;SDS011;1496;51.404;7.232;2023-06-05T07:36:06;10.83;;;5.73;;
2972;SDS011;1496;51.404;7.232;2023-06-05T07:38:33;13.50;;;6.10;;
2972;SDS011;1496;51.404;7.232;2023-06-05T07:40:59;8.50;;;5.40;;
2972;SDS011;1496;51.404;7.232;2023-06-05T07:43:26;8.10;;;5.20;;
2972;SDS011;1496;51.404;7.232;2023-06-05T07:45:53;10.40;;;4.83;;
2972;SDS011;1496;51.404;7.232;2023-06-05T07:48:18;8.80;;;6.43;;
2972;SDS011;1496;51.404;7.232;2023-06-05T07:50:45;6.80;;;5.30;;
2972;SDS011;1496;51.404;7.232;2023-06-05T07:53:10;13.70;;;4.63;;
2972;SDS011;1496;51.404;7.232;2023-06-05T07:55:36;11.13;;;4.83;;
2972;SDS011;1496;51.404;7.232;2023-06-05T07:58:02;6.43;;;4.80;;
2972;SDS011;1496;51.404;7.232;2023-06-05T08:00:27;8.70;;;5.43;;
2972;SDS011;1496;51.404;7.232;2023-06-05T08:02:53;6.30;;;4.47;;
2972;SDS011;1496;51.404;7.232;2023-06-05T08:05:19;14.63;;;4.50;;
2972;SDS011;1496;51.404;7.232;2023-06-05T08:07:45;8.70;;;5.10;;
2972;SDS011;1496;51.404;7.232;2023-06-05T08:10:14;5.83;;;3.73;;
2972;SDS011;1496;51.404;7.232;2023-06-05T08:12:40;5.60;;;4.07;;
2972;SDS011;1496;51.404;7.232;2023-06-05T08:15:05;9.00;;;5.40;;
2972;SDS011;1496;51.404;7.232;2023-06-05T08:17:32;6.60;;;5.27;;
2972;SDS011;1496;51.404;7.232;2023-06-05T08:19:58;7.17;;;4.60;;
2972;SDS011;1496;51.404;7.232;2023-06-05T08:22:23;16.53;;;4.67;;
2972;SDS011;1496;51.404;7.232;2023-06-05T08:24:49;10.63;;;4.90;;
2972;SDS011;1496;51.404;7.232;2023-06-05T08:27:18;7.73;;;4.67;;
2972;SDS011;1496;51.404;7.232;2023-06-05T08:29:44;8.97;;;4.00;;
2972;SDS011;1496;51.404;7.232;2023-06-05T08:32:10;6.33;;;4.20;;
2972;SDS011;1496;51.404;7.232;2023-06-05T08:34:35;9.60;;;4.60;;
2972;SDS011;1496;51.404;7.232;2023-06-05T08:37:01;11.70;;;4.83;;
2972;SDS011;1496;51.404;7.232;2023-06-05T08:39:27;9.07;;;4.50;;
2972;SDS011;1496;51.404;7.232;2023-06-05T08:41:57;11.23;;;4.57;;
2972;SDS011;1496;51.404;7.232;2023-06-05T08:44:29;10.67;;;4.50;;
2972;SDS011;1496;51.404;7.232;2023-06-05T08:46:59;6.53;;;4.50;;
2972;SDS011;1496;51.404;7.232;2023-06-05T08:49:26;7.10;;;3.60;;
2972;SDS011;1496;51.404;7.232;2023-06-05T08:52:02;8.10;;;4.10;;
2972;SDS011;1496;51.404;7.232;2023-06-05T08:54:31;7.50;;;4.63;;
2972;SDS011;1496;51.404;7.232;2023-06-05T08:57:02;9.87;;;4.10;;
2972;SDS011;1496;51.404;7.232;2023-06-05T08:59:29;10.27;;;4.33;;
2972;SDS011;1496;51.404;7.232;2023-06-05T09:01:58;7.20;;;4.20;;
2972;SDS011;1496;51.404;7.232;2023-06-05T09:04:25;12.07;;;4.23;;
2972;SDS011;1496;51.404;7.232;2023-06-05T09:06:58;7.60;;;4.10;;
2972;SDS011;1496;51.404;7.232;2023-06-05T09:09:24;7.87;;;3.87;;
2972;SDS011;1496;51.404;7.232;2023-06-05T09:12:03;10.73;;;4.00;;
2972;SDS011;1496;51.404;7.232;2023-06-05T09:14:30;5.40;;;4.37;;
2972;SDS011;1496;51.404;7.232;2023-06-05T09:16:57;6.73;;;4.20;;
2972;SDS011;1496;51.404;7.232;2023-06-05T09:19:23;8.33;;;4.60;;
2972;SDS011;1496;51.404;7.232;2023-06-05T09:21:52;5.60;;;4.00;;
2972;SDS011;1496;51.404;7.232;2023-06-05T09:24:20;6.43;;;3.73;;
2972;SDS011;1496;51.404;7.232;2023-06-05T09:26:53;7.47;;;3.90;;
2972;SDS011;1496;51.404;7.232;2023-06-05T09:29:20;7.87;;;3.90;;
2972;SDS011;1496;51.404;7.232;2023-06-05T09:31:50;8.60;;;4.27;;
2972;SDS011;1496;51.404;7.232;2023-06-05T09:34:24;7.63;;;4.20;;
2972;SDS011;1496;51.404;7.232;2023-06-05T09:36:51;5.67;;;3.60;;
2972;SDS011;1496;51.404;7.232;2023-06-05T09:39:17;6.33;;;4.17;;
2972;SDS011;1496;51.404;7.232;2023-06-05T09:41:45;5.83;;;3.50;;
2972;SDS011;1496;51.404;7.232;2023-06-05T09:44:13;7.30;;;3.80;;
2972;SDS011;1496;51.404;7.232;2023-06-05T09:46:49;9.23;;;4.47;;
2972;SDS011;1496;51.404;7.232;2023-06-05T09:49:15;6.43;;;4.37;;
2972;SDS011;1496;51.404;7.232;2023-06-05T09:51:42;8.70;;;4.60;;
2972;SDS011;1496;51.404;7.232;2023-06-05T09:54:08;6.93;;;3.63;;
2972;SDS011;1496;51.404;7.232;2023-06-05T09:56:36;9.20;;;4.40;;
2972;SDS011;1496;51.404;7.232;2023-06-05T09:59:04;5.60;;;3.70;;
2972;SDS011;1496;51.404;7.232;2023-06-05T10:01:32;9.00;;;4.40;;
2972;SDS011;1496;51.404;7.232;2023-06-05T10:04:10;8.00;;;4.03;;
2972;SDS011;1496;51.404;7.232;2023-06-05T10:06:37;7.90;;;5.10;;
2972;SDS011;1496;51.404;7.232;2023-06-05T10:09:06;7.90;;;4.70;;
2972;SDS011;1496;51.404;7.232;2023-06-05T10:11:32;12.53;;;5.00;;
2972;SDS011;1496;51.404;7.232;2023-06-05T10:13:58;6.13;;;4.10;;
2972;SDS011;1496;51.404;7.232;2023-06-05T10:16:26;11.63;;;4.70;;
2972;SDS011;1496;51.404;7.232;2023-06-05T10:18:56;11.70;;;4.57;;
2972;SDS011;1496;51.404;7.232;2023-06-05T10:21:22;6.40;;;4.90;;
2972;SDS011;1496;51.404;7.232;2023-06-05T10:23:59;7.37;;;4.47;;
2972;SDS011;1496;51.404;7.232;2023-06-05T10:40:15;10.90;;;3.47;;
2972;SDS011;1496;51.404;7.232;2023-06-05T10:42:42;8.93;;;4.70;;
2972;SDS011;1496;51.404;7.232;2023-06-05T10:45:08;8.40;;;4.50;;
2972;SDS011;1496;51.404;7.232;2023-06-05T10:52:44;7.93;;;4.10;;
2972;SDS011;1496;51.404;7.232;2023-06-05T10:55:11;8.37;;;3.90;;
2972;SDS011;1496;51.404;7.232;2023-06-05T11:00:35;5.90;;;3.60;;
2972;SDS011;1496;51.404;7.232;2023-06-05T11:03:03;5.90;;;3.80;;
2972;SDS011;1496;51.404;7.232;2023-06-05T11:05:31;4.87;;;3.70;;
2972;SDS011;1496;51.404;7.232;2023-06-05T11:08:09;4.40;;;3.00;;
2972;SDS011;1496;51.404;7.232;2023-06-05T11:16:39;7.87;;;3.30;;
2972;SDS011;1496;51.404;7.232;2023-06-05T11:24:36;6.37;;;3.40;;
2972;SDS011;1496;51.404;7.232;2023-06-05T11:27:03;8.00;;;3.67;;
2972;SDS011;1496;51.404;7.232;2023-06-05T11:29:30;7.60;;;3.30;;
2972;SDS011;1496;51.404;7.232;2023-06-05T11:31:57;6.43;;;3.43;;
2972;SDS011;1496;51.404;7.232;2023-06-05T11:34:23;6.73;;;3.20;;
2972;SDS011;1496;51.404;7.232;2023-06-05T11:36:50;6.37;;;4.13;;
2972;SDS011;1496;51.404;7.232;2023-06-05T11:39:16;6.77;;;3.47;;
2972;SDS011;1496;51.404;7.232;2023-06-05T11:41:48;7.47;;;3.73;;
2972;SDS011;1496;51.404;7.232;2023-06-05T11:44:30;5.27;;;2.53;;
2972;SDS011;1496;51.404;7.232;2023-06-05T11:46:58;4.50;;;3.20;;
2972;SDS011;1496;51.404;7.232;2023-06-05T11:49:25;4.37;;;3.07;;
2972;SDS011;1496;51.404;7.232;2023-06-05T11:51:52;4.50;;;2.80;;
2972;SDS011;1496;51.404;7.232;2023-06-05T11:54:31;3.77;;;2.63;;
2972;SDS011;1496;51.404;7.232;2023-06-05T11:57:00;5.03;;;3.10;;
2972;SDS011;1496;51.404;7.232;2023-06-05T11:59:36;11.43;;;3.70;;
2972;SDS011;1496;51.404;7.232;2023-06-05T12:02:03;5.40;;;2.97;;
2972;SDS011;1496;51.404;7.232;2023-06-05T12:04:32;5.53;;;2.67;;
2972;SDS011;1496;51.404;7.232;2023-06-05T12:06:59;6.67;;;3.40;;
2972;SDS011;1496;51.404;7.232;2023-06-05T12:09:27;12.20;;;2.60;;
2972;SDS011;1496;51.404;7.232;2023-06-05T12:12:03;3.73;;;2.70;;
2972;SDS011;1496;51.404;7.232;2023-06-05T12:14:31;7.00;;;3.03;;
2972;SDS011;1496;51.404;7.232;2023-06-05T12:16:58;7.63;;;3.17;;
2972;SDS011;1496;51.404;7.232;2023-06-05T12:19:24;4.77;;;2.77;;
2972;SDS011;1496;51.404;7.232;2023-06-05T12:21:50;7.23;;;2.90;;
2972;SDS011;1496;51.404;7.232;2023-06-05T12:24:26;6.30;;;3.53;;
2972;SDS011;1496;51.404;7.232;2023-06-05T12:26:53;4.77;;;3.17;;
2972;SDS011;1496;51.404;7.232;2023-06-05T12:29:21;10.10;;;3.77;;
2972;SDS011;1496;51.404;7.232;2023-06-05T12:31:48;6.90;;;2.83;;
2972;SDS011;1496;51.404;7.232;2023-06-05T12:34:14;4.57;;;3.40;;
2972;SDS011;1496;51.404;7.232;2023-06-05T12:36:41;4.37;;;3.13;;
2972;SDS011;1496;51.404;7.232;2023-06-05T12:39:11;3.40;;;2.83;;
2972;SDS011;1496;51.404;7.232;2023-06-05T12:41:38;7.83;;;2.90;;
2972;SDS011;1496;51.404;7.232;2023-06-05T12:44:05;4.20;;;3.17;;
2972;SDS011;1496;51.404;7.232;2023-06-05T12:46:32;4.60;;;3.10;;
2972;SDS011;1496;51.404;7.232;2023-06-05T12:48:58;4.50;;;2.50;;
2972;SDS011;1496;51.404;7.232;2023-06-05T12:51:25;5.50;;;2.87;;
2972;SDS011;1496;51.404;7.232;2023-06-05T12:53:54;7.23;;;3.67;;
2972;SDS011;1496;51.404;7.232;2023-06-05T12:56:21;5.50;;;2.50;;
2972;SDS011;1496;51.404;7.232;2023-06-05T12:58:55;13.60;;;2.97;;
2972;SDS011;1496;51.404;7.232;2023-06-05T13:01:22;4.67;;;3.40;;
2972;SDS011;1496;51.404;7.232;2023-06-05T13:03:49;5.07;;;3.27;;
2972;SDS011;1496;51.404;7.232;2023-06-05T13:06:15;7.17;;;3.00;;
2972;SDS011;1496;51.404;7.232;2023-06-05T13:08:41;5.00;;;3.23;;
2972;SDS011;1496;51.404;7.232;2023-06-05T13:11:07;4.90;;;3.07;;
2972;SDS011;1496;51.404;7.232;2023-06-05T13:13:32;10.60;;;3.17;;
2972;SDS011;1496;51.404;7.232;2023-06-05T13:15:59;8.90;;;3.17;;
2972;SDS011;1496;51.404;7.232;2023-06-05T13:18:25;5.67;;;3.27;;
2972;SDS011;1496;51.404;7.232;2023-06-05T13:20:52;5.40;;;2.80;;
2972;SDS011;1496;51.404;7.232;2023-06-05T13:23:18;6.67;;;4.00;;
2972;SDS011;1496;51.404;7.232;2023-06-05T13:25:44;5.07;;;2.80;;
2972;SDS011;1496;51.404;7.232;2023-06-05T13:28:10;6.70;;;3.17;;
2972;SDS011;1496;51.404;7.232;2023-06-05T13:30:36;5.77;;;3.50;;
2972;SDS011;1496;51.404;7.232;2023-06-05T13:33:01;3.53;;;2.73;;
2972;SDS011;1496;51.404;7.232;2023-06-05T13:35:27;5.30;;;3.13;;
2972;SDS011;1496;51.404;7.232;2023-06-05T13:37:53;8.50;;;3.10;;
2972;SDS011;1496;51.404;7.232;2023-06-05T13:40:19;4.30;;;3.20;;
2972;SDS011;1496;51.404;7.232;2023-06-05T13:42:44;4.67;;;2.40;;
2972;SDS011;1496;51.404;7.232;2023-06-05T13:45:10;5.00;;;3.10;;
2972;SDS011;1496;51.404;7.232;2023-06-05T13:47:36;5.37;;;3.20;;
2972;SDS011;1496;51.404;7.232;2023-06-05T13:50:03;4.67;;;2.60;;
2972;SDS011;1496;51.404;7.232;2023-06-05T13:52:29;5.33;;;2.50;;
2972;SDS011;1496;51.404;7.232;2023-06-05T13:54:54;4.80;;;3.37;;
2972;SDS011;1496;51.404;7.232;2023-06-05T13:57:20;6.00;;;2.77;;
2972;SDS011;1496;51.404;7.232;2023-06-05T13:59:45;6.23;;;3.30;;
2972;SDS011;1496;51.404;7.232;2023-06-05T14:02:11;4.10;;;2.70;;
2972;SDS011;1496;51.404;7.232;2023-06-05T14:04:37;8.80;;;3.10;;
2972;SDS011;1496;51.404;7.232;2023-06-05T14:07:03;3.57;;;2.53;;
2972;SDS011;1496;51.404;7.232;2023-06-05T14:09:29;3.33;;;2.60;;
2972;SDS011;1496;51.404;7.232;2023-06-05T14:11:55;6.87;;;2.83;;
2972;SDS011;1496;51.404;7.232;2023-06-05T14:14:22;3.90;;;3.07;;
2972;SDS011;1496;51.404;7.232;2023-06-05T14:16:48;6.00;;;3.17;;
2972;SDS011;1496;51.404;7.232;2023-06-05T14:19:15;5.40;;;2.90;;
2972;SDS011;1496;51.404;7.232;2023-06-05T14:21:41;6.10;;;2.20;;
2972;SDS011;1496;51.404;7.232;2023-06-05T14:24:07;6.07;;;3.03;;
2972;SDS011;1496;51.404;7.232;2023-06-05T14:26:33;2.83;;;2.30;;
2972;SDS011;1496;51.404;7.232;2023-06-05T14:28:59;5.30;;;3.00;;
2972;SDS011;1496;51.404;7.232;2023-06-05T14:31:25;4.37;;;3.10;;
2972;SDS011;1496;51.404;7.232;2023-06-05T14:33:53;3.70;;;2.57;;
2972;SDS011;1496;51.404;7.232;2023-06-05T14:36:19;3.73;;;3.00;;
2972;SDS011;1496;51.404;7.232;2023-06-05T14:38:44;20.47;;;3.40;;
2972;SDS011;1496;51.404;7.232;2023-06-05T14:41:10;5.90;;;2.53;;
2972;SDS011;1496;51.404;7.232;2023-06-05T14:43:36;3.77;;;2.40;;
2972;SDS011;1496;51.404;7.232;2023-06-05T14:46:02;9.00;;;2.90;;
2972;SDS011;1496;51.404;7.232;2023-06-05T14:48:29;5.60;;;2.63;;
2972;SDS011;1496;51.404;7.232;2023-06-05T14:50:56;5.30;;;2.33;;
2972;SDS011;1496;51.404;7.232;2023-06-05T14:53:21;3.13;;;2.03;;
2972;SDS011;1496;51.404;7.232;2023-06-05T14:55:47;3.80;;;2.50;;
2972;SDS011;1496;51.404;7.232;2023-06-05T14:58:13;6.53;;;2.70;;
2972;SDS011;1496;51.404;7.232;2023-06-05T15:00:39;6.13;;;2.87;;
2972;SDS011;1496;51.404;7.232;2023-06-05T15:03:05;3.30;;;2.43;;
2972;SDS011;1496;51.404;7.232;2023-06-05T15:05:31;3.30;;;2.17;;
2972;SDS011;1496;51.404;7.232;2023-06-05T15:07:57;6.70;;;2.50;;
2972;SDS011;1496;51.404;7.232;2023-06-05T15:10:24;4.27;;;2.40;;
2972;SDS011;1496;51.404;7.232;2023-06-05T15:12:50;5.50;;;2.43;;
2972;SDS011;1496;51.404;7.232;2023-06-05T15:15:21;4.37;;;2.50;;
2972;SDS011;1496;51.404;7.232;2023-06-05T15:17:47;3.23;;;2.40;;
2972;SDS011;1496;51.404;7.232;2023-06-05T15:20:13;2.53;;;2.13;;
2972;SDS011;1496;51.404;7.232;2023-06-05T15:22:39;5.30;;;2.37;;
2972;SDS011;1496;51.404;7.232;2023-06-05T15:25:05;3.83;;;2.10;;
2972;SDS011;1496;51.404;7.232;2023-06-05T15:27:31;5.10;;;2.50;;
2972;SDS011;1496;51.404;7.232;2023-06-05T15:29:59;4.03;;;2.03;;
2972;SDS011;1496;51.404;7.232;2023-06-05T15:32:24;5.30;;;3.03;;
2972;SDS011;1496;51.404;7.232;2023-06-05T15:34:50;4.87;;;2.10;;
2972;SDS011;1496;51.404;7.232;2023-06-05T15:37:16;3.20;;;2.30;;
2972;SDS011;1496;51.404;7.232;2023-06-05T15:39:42;4.40;;;2.73;;
2972;SDS011;1496;51.404;7.232;2023-06-05T15:42:08;4.70;;;2.77;;
2972;SDS011;1496;51.404;7.232;2023-06-05T15:44:37;3.73;;;2.70;;
2972;SDS011;1496;51.404;7.232;2023-06-05T15:47:05;3.87;;;2.33;;
2972;SDS011;1496;51.404;7.232;2023-06-05T15:49:31;10.07;;;2.80;;
2972;SDS011;1496;51.404;7.232;2023-06-05T15:51:57;4.83;;;2.40;;
2972;SDS011;1496;51.404;7.232;2023-06-05T15:54:22;5.53;;;2.30;;
2972;SDS011;1496;51.404;7.232;2023-06-05T15:57:06;3.17;;;2.47;;